createdAt,value
2017-10-30T00:00:20.980Z,0
2017-10-30T00:01:29.847Z,0
2017-10-30T00:02:38.721Z,0
2017-10-30T00:03:47.593Z,0
2017-10-30T00:04:56.808Z,0
2017-10-30T00:06:05.681Z,0
2017-10-30T00:07:14.220Z,0
2017-10-30T00:08:23.430Z,0
2017-10-30T00:09:32.302Z,0
2017-10-30T00:10:40.842Z,0
2017-10-30T00:11:50.050Z,0
2017-10-30T00:12:58.924Z,0
2017-10-30T00:14:07.819Z,0
2017-10-30T00:15:16.669Z,0
2017-10-30T00:16:25.885Z,0
2017-10-30T00:17:35.093Z,0
2017-10-30T00:18:45.016Z,0
2017-10-30T00:19:53.577Z,0
2017-10-30T00:21:02.112Z,0
2017-10-30T00:22:10.988Z,0
2017-10-30T00:23:19.862Z,0
2017-10-30T00:24:28.398Z,0
2017-10-30T00:25:37.623Z,0
2017-10-30T00:26:46.496Z,0
2017-10-30T00:27:55.710Z,0
2017-10-30T00:29:04.582Z,0
2017-10-30T00:30:13.792Z,0
2017-10-30T00:31:22.334Z,0
2017-10-30T00:32:31.212Z,0
2017-10-30T00:33:40.114Z,0
2017-10-30T00:34:49.657Z,0
2017-10-30T00:35:58.863Z,0
2017-10-30T00:37:07.736Z,0
2017-10-30T00:38:16.282Z,0
2017-10-30T00:39:25.824Z,0
2017-10-30T00:40:34.706Z,0
2017-10-30T00:41:43.244Z,0
2017-10-30T00:42:52.116Z,0
2017-10-30T00:44:00.653Z,0
2017-10-30T00:45:09.536Z,0
2017-10-30T00:46:18.411Z,0
2017-10-30T00:47:27.296Z,0
2017-10-30T00:48:36.167Z,0
2017-10-30T00:49:44.714Z,0
2017-10-30T00:50:53.582Z,0
2017-10-30T00:52:02.791Z,0
2017-10-30T00:53:11.329Z,0
2017-10-30T00:54:20.198Z,0
2017-10-30T00:55:29.071Z,0
2017-10-30T00:56:37.607Z,0
2017-10-30T00:57:46.479Z,0
2017-10-30T00:58:55.358Z,0
2017-10-30T01:00:04.912Z,0
2017-10-30T01:01:13.449Z,0
2017-10-30T01:02:22.320Z,0
2017-10-30T01:03:31.193Z,0
2017-10-30T01:04:40.397Z,0
2017-10-30T01:05:49.270Z,0
2017-10-30T01:06:58.142Z,0
2017-10-30T01:08:06.679Z,0
2017-10-30T01:09:15.553Z,0
2017-10-30T01:10:24.434Z,0
2017-10-30T01:11:33.304Z,0
2017-10-30T01:12:42.174Z,0
2017-10-30T01:13:51.719Z,0
2017-10-30T01:15:00.592Z,0
2017-10-30T01:16:09.127Z,0
2017-10-30T01:17:18.007Z,0
2017-10-30T01:18:27.226Z,0
2017-10-30T01:19:36.096Z,0
2017-10-30T01:20:44.965Z,0
2017-10-30T01:21:53.846Z,0
2017-10-30T01:23:02.713Z,0
2017-10-30T01:24:11.919Z,0
2017-10-30T01:25:20.792Z,0
2017-10-30T01:26:29.331Z,0
2017-10-30T01:27:37.866Z,0
2017-10-30T01:28:46.745Z,0
2017-10-30T01:29:55.957Z,0
2017-10-30T01:31:04.492Z,0
2017-10-30T01:32:13.703Z,0
2017-10-30T01:33:22.578Z,0
2017-10-30T01:34:31.784Z,0
2017-10-30T01:35:40.324Z,0
2017-10-30T01:36:49.884Z,0
2017-10-30T01:37:59.092Z,0
2017-10-30T01:39:08.643Z,0
2017-10-30T01:40:17.521Z,0
2017-10-30T01:41:26.397Z,0
2017-10-30T01:42:35.605Z,0
2017-10-30T01:43:44.141Z,0
2017-10-30T01:44:53.020Z,0
2017-10-30T01:46:01.556Z,0
2017-10-30T01:47:10.765Z,0
2017-10-30T01:48:19.640Z,0
2017-10-30T01:49:28.181Z,0
2017-10-30T01:50:37.400Z,0
2017-10-30T01:51:46.272Z,0
2017-10-30T01:52:55.144Z,0
2017-10-30T01:54:04.021Z,0
2017-10-30T01:55:12.558Z,0
2017-10-30T01:56:21.097Z,0
2017-10-30T01:57:29.966Z,0
2017-10-30T01:58:38.838Z,0
2017-10-30T01:59:47.374Z,0
2017-10-30T02:00:55.911Z,0
2017-10-30T02:02:04.455Z,0
2017-10-30T02:03:12.985Z,0
2017-10-30T02:04:21.858Z,0
2017-10-30T02:05:30.731Z,0
2017-10-30T02:06:39.268Z,0
2017-10-30T02:07:48.477Z,0
2017-10-30T02:08:57.685Z,0
2017-10-30T02:10:06.559Z,0
2017-10-30T02:11:15.096Z,0
2017-10-30T02:12:24.305Z,0
2017-10-30T02:13:33.179Z,0
2017-10-30T02:14:41.714Z,0
2017-10-30T02:15:50.251Z,0
2017-10-30T02:16:59.130Z,0
2017-10-30T02:18:08.005Z,0
2017-10-30T02:19:16.877Z,0
2017-10-30T02:20:25.748Z,0
2017-10-30T02:21:34.953Z,0
2017-10-30T02:22:43.822Z,0
2017-10-30T02:23:52.359Z,0
2017-10-30T02:25:00.897Z,0
2017-10-30T02:26:09.436Z,0
2017-10-30T02:27:18.314Z,0
2017-10-30T02:28:26.879Z,0
2017-10-30T02:29:35.396Z,0
2017-10-30T02:30:44.267Z,0
2017-10-30T02:31:53.138Z,0
2017-10-30T02:33:02.362Z,0
2017-10-30T02:34:11.589Z,0
2017-10-30T02:35:20.126Z,0
2017-10-30T02:36:29.668Z,0
2017-10-30T02:37:38.207Z,0
2017-10-30T02:38:47.078Z,0
2017-10-30T02:39:55.616Z,0
2017-10-30T02:41:04.493Z,0
2017-10-30T02:42:13.031Z,0
2017-10-30T02:43:21.567Z,0
2017-10-30T02:44:30.106Z,0
2017-10-30T02:45:38.977Z,0
2017-10-30T02:46:47.846Z,0
2017-10-30T02:47:56.728Z,0
2017-10-30T02:49:05.266Z,0
2017-10-30T02:50:14.483Z,0
2017-10-30T02:51:23.355Z,0
2017-10-30T02:52:32.565Z,0
2017-10-30T02:53:41.103Z,0
2017-10-30T02:54:50.654Z,0
2017-10-30T02:55:59.538Z,0
2017-10-30T02:57:08.410Z,0
2017-10-30T02:58:16.946Z,0
2017-10-30T02:59:25.821Z,0
2017-10-30T03:00:35.033Z,0
2017-10-30T03:01:44.240Z,0
2017-10-30T03:02:53.120Z,0
2017-10-30T03:04:01.996Z,0
2017-10-30T03:05:10.877Z,0
2017-10-30T03:06:19.746Z,0
2017-10-30T03:07:28.618Z,0
2017-10-30T03:08:37.494Z,0
2017-10-30T03:09:47.042Z,0
2017-10-30T03:10:56.262Z,0
2017-10-30T03:12:05.471Z,0
2017-10-30T03:13:14.354Z,0
2017-10-30T03:14:23.566Z,0
2017-10-30T03:15:32.776Z,0
2017-10-30T03:16:41.649Z,0
2017-10-30T03:17:50.861Z,0
2017-10-30T03:18:59.735Z,0
2017-10-30T03:20:08.608Z,0
2017-10-30T03:21:17.144Z,0
2017-10-30T03:22:25.682Z,0
2017-10-30T03:23:34.553Z,0
2017-10-30T03:24:43.098Z,0
2017-10-30T03:25:51.978Z,0
2017-10-30T03:27:01.208Z,0
2017-10-30T03:28:09.736Z,0
2017-10-30T03:29:18.948Z,0
2017-10-30T03:30:28.506Z,0
2017-10-30T03:31:37.718Z,0
2017-10-30T03:32:46.926Z,0
2017-10-30T03:33:56.483Z,0
2017-10-30T03:35:05.699Z,0
2017-10-30T03:36:14.572Z,0
2017-10-30T03:37:23.781Z,0
2017-10-30T03:38:32.672Z,0
2017-10-30T03:39:41.208Z,0
2017-10-30T03:40:49.745Z,0
2017-10-30T03:41:58.955Z,0
2017-10-30T03:43:07.831Z,0
2017-10-30T03:44:16.371Z,0
2017-10-30T03:45:25.249Z,0
2017-10-30T03:46:34.129Z,0
2017-10-30T03:47:42.669Z,0
2017-10-30T03:48:51.540Z,0
2017-10-30T03:50:00.752Z,0
2017-10-30T03:51:09.633Z,0
2017-10-30T03:52:18.840Z,0
2017-10-30T03:53:27.712Z,0
2017-10-30T03:54:36.588Z,0
2017-10-30T03:55:45.550Z,0
2017-10-30T03:56:54.088Z,0
2017-10-30T03:58:02.698Z,0
2017-10-30T03:59:11.604Z,0
2017-10-30T04:00:20.144Z,0
2017-10-30T04:01:29.358Z,0
2017-10-30T04:02:37.896Z,0
2017-10-30T04:03:46.765Z,0
2017-10-30T04:04:55.300Z,0
2017-10-30T04:06:04.177Z,0
2017-10-30T04:07:13.049Z,0
2017-10-30T04:08:21.923Z,0
2017-10-30T04:09:31.131Z,0
2017-10-30T04:10:40.337Z,0
2017-10-30T04:11:48.877Z,0
2017-10-30T04:12:57.750Z,0
2017-10-30T04:14:06.967Z,0
2017-10-30T04:15:16.512Z,0
2017-10-30T04:16:25.385Z,0
2017-10-30T04:17:33.919Z,0
2017-10-30T04:18:44.090Z,0
2017-10-30T04:19:53.297Z,0
2017-10-30T04:21:02.510Z,0
2017-10-30T04:22:11.047Z,0
2017-10-30T04:23:19.584Z,0
2017-10-30T04:24:28.460Z,0
2017-10-30T04:25:37.335Z,0
2017-10-30T04:26:46.203Z,0
2017-10-30T04:27:54.741Z,0
2017-10-30T04:29:03.945Z,0
2017-10-30T04:30:12.484Z,0
2017-10-30T04:31:21.017Z,0
2017-10-30T04:32:29.556Z,0
2017-10-30T04:33:38.762Z,0
2017-10-30T04:34:47.298Z,0
2017-10-30T04:35:56.171Z,0
2017-10-30T04:37:04.710Z,0
2017-10-30T04:38:13.589Z,0
2017-10-30T04:39:22.463Z,0
2017-10-30T04:40:31.334Z,0
2017-10-30T04:41:39.871Z,0
2017-10-30T04:42:48.408Z,0
2017-10-30T04:43:57.285Z,0
2017-10-30T04:45:06.159Z,0
2017-10-30T04:46:15.365Z,0
2017-10-30T04:47:23.901Z,0
2017-10-30T04:48:32.774Z,0
2017-10-30T04:49:41.311Z,0
2017-10-30T04:50:49.848Z,0
2017-10-30T04:51:58.719Z,0
2017-10-30T04:53:07.259Z,0
2017-10-30T04:54:15.795Z,0
2017-10-30T04:55:24.675Z,0
2017-10-30T04:56:33.555Z,0
2017-10-30T04:57:42.764Z,0
2017-10-30T04:58:51.640Z,0
2017-10-30T05:00:00.512Z,0
2017-10-30T05:01:09.384Z,0
2017-10-30T05:02:17.920Z,0
2017-10-30T05:03:27.133Z,0
2017-10-30T05:04:35.670Z,0
2017-10-30T05:05:44.206Z,0
2017-10-30T05:06:53.080Z,0
2017-10-30T05:08:01.618Z,0
2017-10-30T05:09:10.155Z,0
2017-10-30T05:10:19.031Z,0
2017-10-30T05:11:28.244Z,0
2017-10-30T05:12:37.788Z,0
2017-10-30T05:13:46.329Z,0
2017-10-30T05:14:55.203Z,0
2017-10-30T05:16:04.075Z,0
2017-10-30T05:17:13.292Z,0
2017-10-30T05:18:22.162Z,0
2017-10-30T05:19:30.708Z,0
2017-10-30T05:20:39.913Z,0
2017-10-30T05:21:48.448Z,0
2017-10-30T05:22:57.653Z,0
2017-10-30T05:24:06.522Z,0
2017-10-30T05:25:15.061Z,0
2017-10-30T05:26:23.610Z,0
2017-10-30T05:27:32.128Z,0
2017-10-30T05:28:40.665Z,0
2017-10-30T05:29:49.538Z,0
2017-10-30T05:30:58.745Z,0
2017-10-30T05:32:07.312Z,0
2017-10-30T05:33:16.520Z,0
2017-10-30T05:34:25.391Z,0
2017-10-30T05:35:34.600Z,0
2017-10-30T05:36:43.480Z,0
2017-10-30T05:37:52.347Z,0
2017-10-30T05:39:01.560Z,0
2017-10-30T05:40:10.773Z,0
2017-10-30T05:41:19.648Z,0
2017-10-30T05:42:28.188Z,0
2017-10-30T05:43:36.729Z,0
2017-10-30T05:44:45.932Z,0
2017-10-30T05:45:55.141Z,0
2017-10-30T05:47:04.016Z,0
2017-10-30T05:48:13.231Z,0
2017-10-30T05:49:21.762Z,0
2017-10-30T05:50:30.633Z,0
2017-10-30T05:51:39.506Z,4
2017-10-30T05:52:48.040Z,0
2017-10-30T05:53:57.252Z,0
2017-10-30T05:55:06.461Z,4
2017-10-30T05:56:15.339Z,4
2017-10-30T05:57:23.874Z,4
2017-10-30T05:58:32.749Z,8
2017-10-30T05:59:42.301Z,4
2017-10-30T06:00:50.839Z,8
2017-10-30T06:02:00.049Z,8
2017-10-30T06:03:08.586Z,12
2017-10-30T06:04:17.465Z,12
2017-10-30T06:05:26.672Z,20
2017-10-30T06:06:35.876Z,20
2017-10-30T06:07:44.752Z,28
2017-10-30T06:08:53.622Z,28
2017-10-30T06:10:02.161Z,36
2017-10-30T06:11:10.696Z,44
2017-10-30T06:12:19.569Z,52
2017-10-30T06:13:28.447Z,60
2017-10-30T06:14:36.979Z,72
2017-10-30T06:15:46.184Z,84
2017-10-30T06:16:55.053Z,96
2017-10-30T06:18:03.929Z,112
2017-10-30T06:19:13.141Z,124
2017-10-30T06:20:22.018Z,136
2017-10-30T06:21:31.566Z,156
2017-10-30T06:22:40.449Z,172
2017-10-30T06:23:49.333Z,192
2017-10-30T06:24:57.860Z,212
2017-10-30T06:26:06.396Z,232
2017-10-30T06:27:15.271Z,256
2017-10-30T06:28:24.148Z,284
2017-10-30T06:29:32.681Z,320
2017-10-30T06:30:41.553Z,348
2017-10-30T06:31:50.423Z,364
2017-10-30T06:32:59.298Z,384
2017-10-30T06:34:07.830Z,404
2017-10-30T06:35:16.364Z,436
2017-10-30T06:36:25.572Z,460
2017-10-30T06:37:34.445Z,488
2017-10-30T06:38:42.983Z,516
2017-10-30T06:39:51.862Z,552
2017-10-30T06:41:00.740Z,580
2017-10-30T06:42:09.281Z,608
2017-10-30T06:43:18.157Z,644
2017-10-30T06:44:27.034Z,672
2017-10-30T06:45:35.634Z,704
2017-10-30T06:46:44.511Z,740
2017-10-30T06:47:53.384Z,776
2017-10-30T06:49:01.920Z,808
2017-10-30T06:50:10.462Z,844
2017-10-30T06:51:19.007Z,884
2017-10-30T06:52:28.209Z,916
2017-10-30T06:53:37.080Z,948
2017-10-30T06:54:45.615Z,980
2017-10-30T06:55:54.822Z,1012
2017-10-30T06:57:03.709Z,1044
2017-10-30T06:58:12.578Z,1076
2017-10-30T06:59:21.118Z,1108
2017-10-30T07:00:30.000Z,1144
2017-10-30T07:01:38.872Z,1172
2017-10-30T07:02:47.418Z,1200
2017-10-30T07:03:56.627Z,1224
2017-10-30T07:05:05.843Z,1252
2017-10-30T07:06:14.379Z,1280
2017-10-30T07:07:23.252Z,1300
2017-10-30T07:08:32.126Z,1340
2017-10-30T07:09:40.994Z,1376
2017-10-30T07:10:50.204Z,1404
2017-10-30T07:11:59.424Z,1428
2017-10-30T07:13:08.300Z,1452
2017-10-30T07:14:17.842Z,1472
2017-10-30T07:15:26.378Z,1496
2017-10-30T07:16:34.912Z,1532
2017-10-30T07:17:43.785Z,1624
2017-10-30T07:18:52.659Z,1712
2017-10-30T07:20:01.536Z,1824
2017-10-30T07:21:10.745Z,1904
2017-10-30T07:22:19.954Z,1920
2017-10-30T07:23:28.489Z,1708
2017-10-30T07:24:37.362Z,1732
2017-10-30T07:25:45.900Z,1760
2017-10-30T07:26:54.443Z,1724
2017-10-30T07:28:03.312Z,1648
2017-10-30T07:29:11.851Z,1744
2017-10-30T07:30:21.063Z,1800
2017-10-30T07:31:29.598Z,1840
2017-10-30T07:32:39.145Z,1924
2017-10-30T07:33:48.362Z,1992
2017-10-30T07:34:57.235Z,1968
2017-10-30T07:36:06.451Z,1996
2017-10-30T07:37:15.784Z,2004
2017-10-30T07:38:24.675Z,2056
2017-10-30T07:39:33.200Z,2200
2017-10-30T07:40:41.741Z,2192
2017-10-30T07:41:50.611Z,2048
2017-10-30T07:42:59.150Z,1988
2017-10-30T07:44:08.367Z,1968
2017-10-30T07:45:17.604Z,2060
2017-10-30T07:46:26.515Z,2312
2017-10-30T07:47:35.054Z,2496
2017-10-30T07:48:43.600Z,2564
2017-10-30T07:49:52.483Z,2524
2017-10-30T07:51:03.611Z,2476
2017-10-30T07:52:12.502Z,2260
2017-10-30T07:53:21.765Z,2292
2017-10-30T07:54:30.634Z,2288
2017-10-30T07:55:39.847Z,2152
2017-10-30T07:56:48.797Z,2204
2017-10-30T07:57:57.673Z,2116
2017-10-30T07:59:06.222Z,2048
2017-10-30T08:00:15.440Z,2056
2017-10-30T08:01:24.982Z,2056
2017-10-30T08:02:33.857Z,2092
2017-10-30T08:03:43.065Z,2168
2017-10-30T08:04:52.415Z,2268
2017-10-30T08:06:01.026Z,2152
2017-10-30T08:07:09.572Z,2172
2017-10-30T08:08:18.102Z,2324
2017-10-30T08:09:26.980Z,2396
2017-10-30T08:10:35.851Z,2420
2017-10-30T08:11:44.388Z,2456
2017-10-30T08:12:53.261Z,2536
2017-10-30T08:14:01.899Z,2748
2017-10-30T08:15:10.777Z,2876
2017-10-30T08:16:19.650Z,3056
2017-10-30T08:17:28.521Z,3268
2017-10-30T08:18:37.068Z,3488
2017-10-30T08:19:45.940Z,3780
2017-10-30T08:20:55.000Z,3684
2017-10-30T08:22:03.879Z,4048
2017-10-30T08:23:12.417Z,3968
2017-10-30T08:24:21.627Z,3796
2017-10-30T08:25:30.319Z,3660
2017-10-30T08:26:39.530Z,3828
2017-10-30T08:27:48.404Z,3888
2017-10-30T08:28:57.611Z,4048
2017-10-30T08:30:06.491Z,4112
2017-10-30T08:31:16.046Z,4012
2017-10-30T08:32:24.921Z,4012
2017-10-30T08:33:34.128Z,3736
2017-10-30T08:34:42.666Z,3272
2017-10-30T08:35:51.538Z,2784
2017-10-30T08:37:00.418Z,2644
2017-10-30T08:38:09.295Z,2620
2017-10-30T08:39:18.220Z,2448
2017-10-30T08:40:26.759Z,2464
2017-10-30T08:41:35.632Z,2608
2017-10-30T08:42:44.174Z,2628
2017-10-30T08:43:53.052Z,2416
2017-10-30T08:45:01.595Z,2356
2017-10-30T08:46:10.132Z,2596
2017-10-30T08:47:18.669Z,2636
2017-10-30T08:48:27.208Z,2648
2017-10-30T08:49:36.097Z,2660
2017-10-30T08:50:44.983Z,2668
2017-10-30T08:51:54.536Z,2660
2017-10-30T08:53:03.750Z,2660
2017-10-30T08:54:12.971Z,2660
2017-10-30T08:55:22.245Z,2668
2017-10-30T08:56:30.778Z,2676
2017-10-30T08:57:39.316Z,2684
2017-10-30T08:58:47.855Z,2692
2017-10-30T08:59:56.729Z,2696
2017-10-30T09:01:06.619Z,2700
2017-10-30T09:02:15.156Z,2708
2017-10-30T09:03:24.030Z,2712
2017-10-30T09:04:32.928Z,2724
2017-10-30T09:05:41.804Z,2740
2017-10-30T09:06:50.340Z,2748
2017-10-30T09:07:59.228Z,2756
2017-10-30T09:09:07.771Z,2756
2017-10-30T09:10:16.982Z,2752
2017-10-30T09:11:25.542Z,2748
2017-10-30T09:12:35.091Z,2752
2017-10-30T09:13:44.318Z,2756
2017-10-30T09:14:53.533Z,2752
2017-10-30T09:17:00.687Z,2756
2017-10-30T09:18:09.562Z,2756
2017-10-30T09:23:14.088Z,2744
2017-10-30T09:24:25.140Z,2744
2017-10-30T09:25:34.070Z,2748
2017-10-30T09:26:42.949Z,2756
2017-10-30T09:27:51.491Z,2756
2017-10-30T09:29:00.032Z,2768
2017-10-30T09:30:09.299Z,2756
2017-10-30T09:31:18.181Z,2752
2017-10-30T09:32:27.067Z,2756
2017-10-30T09:33:35.996Z,2748
2017-10-30T09:34:44.872Z,2752
2017-10-30T09:35:54.418Z,2752
2017-10-30T09:37:02.960Z,2764
2017-10-30T09:38:11.831Z,2768
2017-10-30T09:39:21.045Z,2752
2017-10-30T09:40:29.687Z,2756
2017-10-30T09:41:38.562Z,2768
2017-10-30T09:42:47.779Z,2764
2017-10-30T09:43:56.339Z,2752
2017-10-30T09:45:05.535Z,2752
2017-10-30T09:46:14.406Z,2748
2017-10-30T09:47:23.257Z,2740
2017-10-30T09:48:31.807Z,2740
2017-10-30T09:49:40.348Z,2740
2017-10-30T09:50:49.223Z,2752
2017-10-30T09:51:58.097Z,2756
2017-10-30T09:53:06.639Z,2764
2017-10-30T09:54:15.848Z,2768
2017-10-30T09:55:24.539Z,2764
2017-10-30T09:56:33.750Z,2768
2017-10-30T09:57:42.293Z,2768
2017-10-30T09:58:51.509Z,2768
2017-10-30T10:00:00.054Z,2780
2017-10-30T10:01:09.274Z,2780
2017-10-30T10:02:18.150Z,2792
2017-10-30T10:03:27.031Z,2796
2017-10-30T10:04:35.656Z,2796
2017-10-30T10:05:44.194Z,2804
2017-10-30T10:06:53.075Z,2804
2017-10-30T10:08:01.616Z,2808
2017-10-30T10:09:10.497Z,2808
2017-10-30T10:10:19.570Z,2808
2017-10-30T10:11:28.108Z,2804
2017-10-30T10:12:36.652Z,2812
2017-10-30T10:13:45.865Z,2820
2017-10-30T10:14:54.415Z,2828
2017-10-30T10:16:03.292Z,2836
2017-10-30T10:17:11.849Z,2836
2017-10-30T10:18:20.396Z,2832
2017-10-30T10:19:29.620Z,2836
2017-10-30T10:20:38.494Z,2836
2017-10-30T10:21:47.759Z,2848
2017-10-30T10:22:56.694Z,2844
2017-10-30T10:24:07.152Z,2852
2017-10-30T10:25:17.523Z,2852
2017-10-30T10:26:26.743Z,2856
2017-10-30T10:27:35.618Z,2852
2017-10-30T10:28:44.161Z,2860
2017-10-30T10:29:53.041Z,2872
2017-10-30T10:31:01.593Z,2876
2017-10-30T10:32:10.824Z,2924
2017-10-30T10:33:19.371Z,3076
2017-10-30T10:34:27.911Z,3296
2017-10-30T10:35:36.453Z,3668
2017-10-30T10:36:45.053Z,3640
2017-10-30T10:37:53.936Z,3172
2017-10-30T10:39:02.820Z,3056
2017-10-30T10:40:12.042Z,3052
2017-10-30T10:41:21.270Z,3048
2017-10-30T10:42:30.156Z,2928
2017-10-30T10:43:39.030Z,2944
2017-10-30T10:44:47.908Z,2948
2017-10-30T10:45:56.456Z,2956
2017-10-30T10:47:06.006Z,2972
2017-10-30T10:48:14.880Z,2976
2017-10-30T10:49:23.422Z,2984
2017-10-30T10:50:32.637Z,2952
2017-10-30T10:51:41.523Z,2996
2017-10-30T10:52:50.735Z,3020
2017-10-30T10:53:59.276Z,3024
2017-10-30T10:55:07.817Z,3060
2017-10-30T10:56:16.358Z,3228
2017-10-30T10:57:24.896Z,3396
2017-10-30T10:58:33.779Z,3612
2017-10-30T10:59:42.321Z,3576
2017-10-30T11:00:50.871Z,3356
2017-10-30T11:02:00.081Z,3648
2017-10-30T11:03:08.627Z,3900
2017-10-30T11:04:17.161Z,3676
2017-10-30T11:05:26.045Z,4248
2017-10-30T11:06:35.931Z,5768
2017-10-30T11:07:44.808Z,4172
2017-10-30T11:08:54.028Z,5840
2017-10-30T11:10:03.246Z,7584
2017-10-30T11:11:12.803Z,5756
2017-10-30T11:12:21.352Z,4608
2017-10-30T11:13:30.901Z,4412
2017-10-30T11:14:39.778Z,4020
2017-10-30T11:15:48.993Z,4232
2017-10-30T11:16:57.880Z,6688
2017-10-30T11:18:06.418Z,6424
2017-10-30T11:19:15.305Z,5336
2017-10-30T11:20:24.183Z,4196
2017-10-30T11:21:33.396Z,4760
2017-10-30T11:22:42.283Z,6092
2017-10-30T11:23:51.165Z,8072
2017-10-30T11:24:59.705Z,7728
2017-10-30T11:26:08.586Z,5520
2017-10-30T11:27:18.141Z,4364
2017-10-30T11:28:26.681Z,4260
2017-10-30T11:29:35.559Z,4460
2017-10-30T11:30:44.434Z,4344
2017-10-30T11:31:53.644Z,4040
2017-10-30T11:33:02.186Z,3548
2017-10-30T11:34:11.058Z,3516
2017-10-30T11:35:19.599Z,3664
2017-10-30T11:36:28.482Z,3524
2017-10-30T11:37:37.363Z,4344
2017-10-30T11:38:46.265Z,5060
2017-10-30T11:39:55.138Z,4504
2017-10-30T11:41:03.680Z,5308
2017-10-30T11:42:12.220Z,4668
2017-10-30T11:43:21.100Z,4536
2017-10-30T11:44:29.975Z,4856
2017-10-30T11:45:38.515Z,6940
2017-10-30T11:46:47.730Z,6356
2017-10-30T11:47:56.611Z,4988
2017-10-30T11:49:05.486Z,4384
2017-10-30T11:50:15.037Z,3720
2017-10-30T11:51:23.578Z,3760
2017-10-30T11:52:32.797Z,3396
2017-10-30T11:53:41.675Z,3336
2017-10-30T11:54:50.217Z,3056
2017-10-30T11:55:59.097Z,2872
2017-10-30T11:57:07.638Z,2620
2017-10-30T11:58:16.515Z,2932
2017-10-30T11:59:25.390Z,2904
2017-10-30T12:00:34.264Z,3028
2017-10-30T12:01:43.486Z,3052
2017-10-30T12:02:52.025Z,2904
2017-10-30T12:04:00.567Z,3072
2017-10-30T12:05:09.106Z,2600
2017-10-30T12:06:17.649Z,2632
2017-10-30T12:07:26.529Z,2724
2017-10-30T12:08:35.407Z,3164
2017-10-30T12:09:44.281Z,2904
2017-10-30T12:10:52.824Z,3036
2017-10-30T12:12:01.365Z,2900
2017-10-30T12:13:10.582Z,2860
2017-10-30T12:14:19.124Z,2904
2017-10-30T12:15:28.003Z,2936
2017-10-30T12:16:36.542Z,2988
2017-10-30T12:17:45.421Z,3072
2017-10-30T12:18:54.298Z,3180
2017-10-30T12:20:03.512Z,3228
2017-10-30T12:21:12.391Z,3116
2017-10-30T12:22:21.282Z,2972
2017-10-30T12:23:30.167Z,2992
2017-10-30T12:24:39.041Z,3016
2017-10-30T12:25:48.252Z,3216
2017-10-30T12:26:57.799Z,3392
2017-10-30T12:28:07.013Z,3432
2017-10-30T12:29:15.892Z,3732
2017-10-30T12:30:24.768Z,4032
2017-10-30T12:31:33.643Z,3580
2017-10-30T12:32:42.188Z,3288
2017-10-30T12:33:51.066Z,3420
2017-10-30T12:34:59.953Z,3924
2017-10-30T12:36:08.833Z,4760
2017-10-30T12:37:18.046Z,5892
2017-10-30T12:38:27.267Z,6668
2017-10-30T12:39:35.802Z,7464
2017-10-30T12:40:45.024Z,7344
2017-10-30T12:41:53.899Z,5760
2017-10-30T12:43:03.123Z,5688
2017-10-30T12:44:12.356Z,6040
2017-10-30T12:45:21.570Z,6284
2017-10-30T12:46:30.784Z,6200
2017-10-30T12:47:39.997Z,5408
2017-10-30T12:48:48.930Z,5308
2017-10-30T12:49:58.143Z,5028
2017-10-30T12:51:07.358Z,4668
2017-10-30T12:52:17.488Z,4352
2017-10-30T12:53:26.047Z,3884
2017-10-30T12:54:34.573Z,3404
2017-10-30T12:55:43.119Z,3132
2017-10-30T12:56:51.993Z,2800
2017-10-30T12:58:01.201Z,2540
2017-10-30T12:59:10.415Z,2480
2017-10-30T13:00:19.291Z,2464
2017-10-30T13:01:28.176Z,2336
2017-10-30T13:02:36.716Z,2400
2017-10-30T13:03:45.259Z,2344
2017-10-30T13:04:53.800Z,2576
2017-10-30T13:06:02.340Z,2468
2017-10-30T13:07:11.264Z,2476
2017-10-30T13:08:20.139Z,2732
2017-10-30T13:09:29.017Z,2800
2017-10-30T13:10:38.231Z,3112
2017-10-30T13:11:47.445Z,3388
2017-10-30T13:12:56.325Z,3748
2017-10-30T13:14:04.861Z,3624
2017-10-30T13:15:13.738Z,3980
2017-10-30T13:16:22.631Z,3924
2017-10-30T13:17:31.838Z,4304
2017-10-30T13:18:40.713Z,4428
2017-10-30T13:19:49.928Z,4280
2017-10-30T13:20:58.800Z,3952
2017-10-30T13:22:07.686Z,3880
2017-10-30T13:23:16.559Z,4084
2017-10-30T13:24:25.436Z,4672
2017-10-30T13:25:33.980Z,4916
2017-10-30T13:26:42.854Z,5260
2017-10-30T13:27:51.395Z,5840
2017-10-30T13:29:00.612Z,7248
2017-10-30T13:30:09.827Z,8256
2017-10-30T13:31:18.374Z,7920
2017-10-30T13:32:27.250Z,7428
2017-10-30T13:33:36.465Z,7112
2017-10-30T13:34:45.370Z,6492
2017-10-30T13:35:53.911Z,6004
2017-10-30T13:37:02.455Z,5696
2017-10-30T13:38:11.000Z,5572
2017-10-30T13:39:19.874Z,5372
2017-10-30T13:40:28.417Z,5196
2017-10-30T13:41:37.293Z,4536
2017-10-30T13:42:46.174Z,4552
2017-10-30T13:43:55.120Z,4720
2017-10-30T13:45:04.039Z,5412
2017-10-30T13:46:12.964Z,6052
2017-10-30T13:47:21.843Z,6904
2017-10-30T13:48:30.389Z,6140
2017-10-30T13:49:39.277Z,5136
2017-10-30T13:50:48.155Z,4600
2017-10-30T13:51:57.373Z,4072
2017-10-30T13:53:06.250Z,3828
2017-10-30T13:54:15.129Z,3672
2017-10-30T13:55:24.003Z,3360
2017-10-30T13:56:32.883Z,3416
2017-10-30T13:57:41.760Z,3692
2017-10-30T13:58:50.634Z,3808
2017-10-30T13:59:59.177Z,3796
2017-10-30T14:01:08.058Z,3824
2017-10-30T14:02:17.271Z,3640
2017-10-30T14:03:25.814Z,3264
2017-10-30T14:04:34.356Z,2972
2017-10-30T14:05:43.251Z,2800
2017-10-30T14:06:52.129Z,2724
2017-10-30T14:08:00.672Z,2692
2017-10-30T14:09:09.550Z,2676
2017-10-30T14:10:18.765Z,2664
2017-10-30T14:11:27.559Z,2648
2017-10-30T14:12:36.455Z,2632
2017-10-30T14:13:45.329Z,2652
2017-10-30T14:14:54.209Z,2760
2017-10-30T14:16:02.750Z,3092
2017-10-30T14:17:11.293Z,3412
2017-10-30T14:18:19.834Z,3456
2017-10-30T14:19:28.375Z,3484
2017-10-30T14:20:36.917Z,3636
2017-10-30T14:21:45.791Z,3680
2017-10-30T14:22:54.677Z,3628
2017-10-30T14:24:03.944Z,3544
2017-10-30T14:25:13.156Z,3320
2017-10-30T14:26:21.699Z,3004
2017-10-30T14:27:31.024Z,2808
2017-10-30T14:28:39.899Z,2624
2017-10-30T14:29:49.449Z,2760
2017-10-30T14:30:57.992Z,2672
2017-10-30T14:32:06.536Z,2452
2017-10-30T14:33:15.754Z,2372
2017-10-30T14:34:24.633Z,2468
2017-10-30T14:35:33.846Z,2552
2017-10-30T14:36:42.721Z,2696
2017-10-30T14:37:51.934Z,2896
2017-10-30T14:39:01.488Z,2944
2017-10-30T14:40:10.700Z,3016
2017-10-30T14:41:19.937Z,3164
2017-10-30T14:42:28.474Z,3152
2017-10-30T14:43:37.020Z,3092
2017-10-30T14:44:45.569Z,3044
2017-10-30T14:45:55.121Z,2952
2017-10-30T14:47:04.970Z,2840
2017-10-30T14:48:14.183Z,2704
2017-10-30T14:49:23.071Z,2572
2017-10-30T14:50:31.948Z,2444
2017-10-30T14:51:41.431Z,2300
2017-10-30T14:52:50.337Z,2188
2017-10-30T14:53:59.548Z,2148
2017-10-30T14:55:08.429Z,2220
2017-10-30T14:56:17.646Z,2472
2017-10-30T14:57:26.561Z,2660
2017-10-30T14:58:35.064Z,2500
2017-10-30T14:59:43.605Z,2372
2017-10-30T15:00:52.208Z,2172
2017-10-30T15:02:01.073Z,1996
2017-10-30T15:03:09.953Z,1820
2017-10-30T15:04:18.510Z,1748
2017-10-30T15:05:27.051Z,1660
2017-10-30T15:06:35.925Z,1484
2017-10-30T15:07:44.893Z,1356
2017-10-30T15:08:53.973Z,1340
2017-10-30T15:10:02.858Z,1376
2017-10-30T15:11:11.396Z,1500
2017-10-30T15:12:19.939Z,1812
2017-10-30T15:13:29.157Z,2020
2017-10-30T15:14:38.045Z,1840
2017-10-30T15:15:46.938Z,1552
2017-10-30T15:16:56.154Z,1432
2017-10-30T15:18:05.032Z,1384
2017-10-30T15:19:13.920Z,1348
2017-10-30T15:20:22.460Z,1316
2017-10-30T15:21:31.674Z,1292
2017-10-30T15:22:40.548Z,1284
2017-10-30T15:23:49.088Z,1264
2017-10-30T15:24:57.971Z,1248
2017-10-30T15:26:07.591Z,1256
2017-10-30T15:27:16.468Z,1252
2017-10-30T15:28:25.345Z,1204
2017-10-30T15:29:33.888Z,1164
2017-10-30T15:30:42.431Z,1128
2017-10-30T15:31:51.800Z,1092
2017-10-30T15:33:00.673Z,1076
2017-10-30T15:34:09.212Z,1048
2017-10-30T15:35:17.753Z,992
2017-10-30T15:36:26.633Z,964
2017-10-30T15:37:35.946Z,956
2017-10-30T15:38:44.827Z,960
2017-10-30T15:39:53.710Z,940
2017-10-30T15:41:02.252Z,920
2017-10-30T15:42:11.642Z,896
2017-10-30T15:43:20.186Z,856
2017-10-30T15:44:29.400Z,820
2017-10-30T15:45:37.943Z,784
2017-10-30T15:46:46.820Z,736
2017-10-30T15:47:55.707Z,700
2017-10-30T15:49:04.579Z,656
2017-10-30T15:50:13.674Z,620
2017-10-30T15:51:22.652Z,584
2017-10-30T15:52:31.199Z,548
2017-10-30T15:53:39.743Z,520
2017-10-30T15:54:48.608Z,488
2017-10-30T15:55:57.598Z,456
2017-10-30T15:57:06.164Z,424
2017-10-30T15:58:15.390Z,396
2017-10-30T15:59:24.380Z,368
2017-10-30T16:00:33.258Z,344